createdAt,value
2019-02-28T00:02:29.633Z,6.63
2019-02-28T00:05:05.761Z,6.17
2019-02-28T00:07:34.452Z,6.80
2019-02-28T00:10:05.816Z,6.43
2019-02-28T00:12:36.452Z,6.07
2019-02-28T00:15:07.468Z,7.20
2019-02-28T00:17:42.579Z,6.33
2019-02-28T00:20:10.641Z,6.67
2019-02-28T00:22:41.229Z,6.87
2019-02-28T00:25:12.213Z,6.37
2019-02-28T00:27:42.912Z,6.53
2019-02-28T00:30:13.996Z,6.80
2019-02-28T00:32:44.658Z,5.80
2019-02-28T00:35:15.414Z,6.43
2019-02-28T00:37:47.810Z,6.63
2019-02-28T00:40:18.553Z,6.40
2019-02-28T00:42:50.876Z,6.93
2019-02-28T00:45:21.430Z,6.53
2019-02-28T00:47:52.259Z,6.43
2019-02-28T00:50:22.834Z,7.07
2019-02-28T00:52:53.445Z,6.37
2019-02-28T00:55:24.138Z,6.70
2019-02-28T00:57:55.415Z,6.23
2019-02-28T01:00:26.508Z,6.30
2019-02-28T01:02:58.191Z,6.47
2019-02-28T01:05:30.553Z,5.97
2019-02-28T01:08:01.710Z,6.07
2019-02-28T01:10:38.831Z,5.83
2019-02-28T01:13:04.827Z,6.30
2019-02-28T01:15:35.381Z,6.20
2019-02-28T01:18:07.349Z,6.10
2019-02-28T01:20:38.074Z,5.93
2019-02-28T01:23:08.682Z,6.43
2019-02-28T01:25:40.148Z,6.17
2019-02-28T01:28:11.449Z,6.00
2019-02-28T01:30:43.521Z,6.20
2019-02-28T01:33:14.203Z,6.10
2019-02-28T01:35:44.810Z,6.00
2019-02-28T01:38:16.535Z,5.60
2019-02-28T01:40:48.355Z,5.93
2019-02-28T01:43:20.012Z,6.47
2019-02-28T01:45:50.639Z,5.60
2019-02-28T01:48:22.673Z,6.10
2019-02-28T01:50:54.803Z,6.07
2019-02-28T01:53:26.412Z,6.00
2019-02-28T01:56:02.243Z,6.17
2019-02-28T01:58:30.466Z,6.37
2019-02-28T02:01:02.516Z,6.10
2019-02-28T02:03:33.128Z,6.10
2019-02-28T02:06:04.801Z,5.83
2019-02-28T02:08:37.821Z,6.07
2019-02-28T02:11:07.765Z,5.60
2019-02-28T02:13:38.312Z,6.37
2019-02-28T02:16:08.976Z,6.20
2019-02-28T02:18:43.027Z,5.60
2019-02-28T02:21:11.887Z,5.97
2019-02-28T02:23:42.434Z,5.73
2019-02-28T02:26:13.111Z,6.47
2019-02-28T02:28:43.678Z,6.27
2019-02-28T02:31:14.261Z,5.87
2019-02-28T02:33:50.915Z,5.77
2019-02-28T02:36:17.771Z,6.00
2019-02-28T02:38:48.456Z,6.30
2019-02-28T02:41:18.990Z,6.17
2019-02-28T02:43:49.578Z,5.33
2019-02-28T02:46:21.619Z,5.63
2019-02-28T02:48:52.248Z,5.93
2019-02-28T02:51:22.801Z,6.57
2019-02-28T02:53:53.382Z,5.80
2019-02-28T02:56:23.966Z,6.17
2019-02-28T02:58:56.027Z,6.10
2019-02-28T03:01:26.673Z,6.30
2019-02-28T03:03:57.341Z,6.30
2019-02-28T03:06:27.934Z,5.90
2019-02-28T03:09:00.408Z,6.70
2019-02-28T03:11:30.990Z,6.37
2019-02-28T03:14:01.676Z,6.77
2019-02-28T03:16:33.385Z,6.50
2019-02-28T03:19:04.754Z,6.10
2019-02-28T03:21:35.343Z,6.50
2019-02-28T03:24:06.029Z,6.10
2019-02-28T03:26:41.406Z,6.10
2019-02-28T03:29:10.047Z,6.63
2019-02-28T03:31:41.889Z,6.40
2019-02-28T03:34:14.298Z,6.03
2019-02-28T03:36:55.177Z,6.70
2019-02-28T03:39:24.145Z,6.57
2019-02-28T03:41:52.914Z,7.00
2019-02-28T03:44:22.887Z,5.73
2019-02-28T03:46:55.259Z,6.70
2019-02-28T03:49:27.313Z,6.03
2019-02-28T03:52:05.451Z,6.33
2019-02-28T03:54:30.294Z,6.17
2019-02-28T03:57:04.122Z,6.00
2019-02-28T03:59:34.873Z,6.70
2019-02-28T04:02:05.451Z,6.33
2019-02-28T04:04:37.141Z,6.93
2019-02-28T04:07:07.888Z,6.57
2019-02-28T04:09:43.767Z,7.87
2019-02-28T04:12:10.890Z,6.30
2019-02-28T04:14:41.850Z,6.60
2019-02-28T04:17:12.426Z,7.07
2019-02-28T04:19:42.998Z,6.53
2019-02-28T04:22:13.543Z,6.53
2019-02-28T04:24:46.283Z,6.93
2019-02-28T04:27:16.396Z,7.07
2019-02-28T04:29:48.438Z,6.77
2019-02-28T04:32:26.606Z,7.17
2019-02-28T04:34:52.780Z,7.43
2019-02-28T04:37:24.822Z,7.73
2019-02-28T04:39:56.647Z,7.20
2019-02-28T04:42:27.289Z,7.23
2019-02-28T04:44:57.829Z,6.73
2019-02-28T04:47:28.505Z,7.60
2019-02-28T04:49:59.265Z,7.17
2019-02-28T04:52:29.888Z,7.53
2019-02-28T04:55:02.700Z,6.67
2019-02-28T04:57:32.704Z,7.00
2019-02-28T05:00:05.864Z,7.40
2019-02-28T05:02:35.733Z,7.00
2019-02-28T05:05:12.196Z,6.97
2019-02-28T05:07:38.884Z,7.40
2019-02-28T05:10:09.817Z,6.63
2019-02-28T05:12:41.124Z,7.37
2019-02-28T05:15:13.346Z,7.40
2019-02-28T05:17:43.954Z,6.80
2019-02-28T05:20:14.819Z,6.63
2019-02-28T05:22:45.407Z,7.10
2019-02-28T05:25:18.660Z,6.87
2019-02-28T05:27:49.930Z,6.93
2019-02-28T05:30:23.803Z,7.03
2019-02-28T05:32:54.747Z,6.70
2019-02-28T05:35:26.607Z,7.13
2019-02-28T05:37:57.317Z,6.57
2019-02-28T05:40:27.854Z,6.90
2019-02-28T05:42:59.550Z,7.30
2019-02-28T05:45:30.113Z,6.73
2019-02-28T05:48:03.871Z,6.53
2019-02-28T05:50:33.012Z,6.27
2019-02-28T05:53:06.356Z,6.13
2019-02-28T05:55:35.895Z,6.27
2019-02-28T05:58:06.513Z,6.70
2019-02-28T06:00:37.770Z,6.50
2019-02-28T06:03:08.365Z,6.60
2019-02-28T06:05:39.138Z,6.70
2019-02-28T06:08:09.793Z,6.73
2019-02-28T06:10:41.472Z,6.60
2019-02-28T06:13:12.083Z,6.93
2019-02-28T06:15:43.869Z,6.80
2019-02-28T06:18:14.431Z,7.40
2019-02-28T06:20:45.000Z,6.00
2019-02-28T06:23:15.525Z,7.20
2019-02-28T06:25:47.920Z,6.53
2019-02-28T06:28:18.544Z,6.87
2019-02-28T06:30:49.121Z,7.27
2019-02-28T06:33:21.204Z,6.03
2019-02-28T06:35:53.742Z,6.87
2019-02-28T06:38:27.188Z,6.97
2019-02-28T06:40:57.856Z,6.87
2019-02-28T06:43:29.498Z,7.07
2019-02-28T06:46:01.436Z,6.87
2019-02-28T06:48:32.001Z,7.80
2019-02-28T06:51:02.590Z,7.17
2019-02-28T06:53:36.295Z,6.97
2019-02-28T06:56:07.061Z,6.90
2019-02-28T06:58:37.597Z,7.93
2019-02-28T07:01:08.257Z,6.90
2019-02-28T07:03:39.887Z,7.60
2019-02-28T07:06:10.542Z,7.47
2019-02-28T07:08:41.152Z,7.87
2019-02-28T07:11:12.957Z,8.03
2019-02-28T07:13:45.016Z,8.50
2019-02-28T07:16:15.681Z,8.18
2019-02-28T07:18:46.207Z,8.63
2019-02-28T07:21:16.942Z,7.90
2019-02-28T07:23:48.606Z,9.58
2019-02-28T07:26:21.153Z,9.58
2019-02-28T07:28:51.931Z,10.80
2019-02-28T07:31:24.752Z,9.45
2019-02-28T07:33:56.248Z,9.97
2019-02-28T07:36:26.895Z,10.83
2019-02-28T07:39:01.305Z,10.93
2019-02-28T07:41:32.763Z,11.87
2019-02-28T07:44:03.433Z,11.23
2019-02-28T07:46:34.012Z,11.78
2019-02-28T07:49:05.710Z,11.90
2019-02-28T07:51:36.393Z,12.15
2019-02-28T07:54:07.011Z,12.88
2019-02-28T07:56:42.631Z,12.88
2019-02-28T07:59:12.068Z,12.28
2019-02-28T08:01:42.670Z,14.78
2019-02-28T08:04:18.116Z,13.93
2019-02-28T08:06:45.669Z,14.30
2019-02-28T08:09:27.491Z,16.05
2019-02-28T08:11:58.175Z,16.87
2019-02-28T08:14:28.893Z,15.98
2019-02-28T08:16:59.527Z,15.70
2019-02-28T08:19:31.225Z,17.55
2019-02-28T08:22:01.883Z,18.32
2019-02-28T08:24:35.793Z,17.32
2019-02-28T08:27:05.216Z,18.07
2019-02-28T08:29:35.866Z,19.42
2019-02-28T08:32:07.994Z,18.35
2019-02-28T08:34:38.729Z,19.27
2019-02-28T08:37:11.103Z,17.98
2019-02-28T08:39:42.150Z,17.77
2019-02-28T08:42:12.882Z,19.05
2019-02-28T08:44:43.545Z,17.67
2019-02-28T08:47:17.842Z,19.73
2019-02-28T08:49:49.392Z,18.25
2019-02-28T08:52:19.935Z,18.65
2019-02-28T08:54:50.518Z,19.12
2019-02-28T08:57:21.956Z,18.30
2019-02-28T08:59:56.260Z,17.55
2019-02-28T09:02:25.882Z,17.85
2019-02-28T09:04:56.468Z,17.45
2019-02-28T09:07:27.033Z,19.42
2019-02-28T09:09:59.155Z,19.12
2019-02-28T09:12:33.073Z,17.60
2019-02-28T09:15:04.508Z,18.87
2019-02-28T09:17:35.076Z,17.95
2019-02-28T09:20:07.474Z,18.80
2019-02-28T09:22:38.587Z,17.50
2019-02-28T09:25:11.860Z,18.40
2019-02-28T09:27:42.728Z,18.77
2019-02-28T09:30:26.503Z,20.03
2019-02-28T09:32:57.673Z,18.48
2019-02-28T09:35:28.466Z,18.67
2019-02-28T09:38:06.325Z,18.92
2019-02-28T09:40:34.291Z,18.10
2019-02-28T09:43:04.997Z,18.85
2019-02-28T09:45:35.588Z,19.90
2019-02-28T09:48:06.210Z,17.87
2019-02-28T09:50:36.849Z,19.32
2019-02-28T09:53:08.659Z,20.17
2019-02-28T09:55:39.850Z,19.40
2019-02-28T09:58:10.549Z,19.40
2019-02-28T10:00:43.279Z,20.48
2019-02-28T10:03:15.426Z,19.07
2019-02-28T10:05:45.757Z,20.65
2019-02-28T10:08:16.339Z,18.85
2019-02-28T10:10:46.888Z,19.12
2019-02-28T10:13:18.335Z,19.62
2019-02-28T10:15:49.230Z,18.05
2019-02-28T10:18:20.919Z,18.05
2019-02-28T10:20:51.479Z,17.75
2019-02-28T10:23:22.239Z,18.12
2019-02-28T10:25:53.971Z,19.15
2019-02-28T10:28:24.550Z,18.92
2019-02-28T10:30:55.121Z,18.52
2019-02-28T10:33:25.736Z,19.82
2019-02-28T10:35:57.783Z,20.17
2019-02-28T10:38:32.752Z,20.65
2019-02-28T10:41:01.702Z,19.67
2019-02-28T10:43:32.477Z,19.87
2019-02-28T10:46:03.134Z,19.92
2019-02-28T10:48:41.744Z,20.50
2019-02-28T10:51:13.883Z,20.55
2019-02-28T10:53:40.352Z,20.62
2019-02-28T10:56:11.024Z,20.48
2019-02-28T10:58:41.590Z,19.45
2019-02-28T11:01:14.141Z,20.37
2019-02-28T11:03:44.742Z,19.60
2019-02-28T11:06:15.522Z,19.45
2019-02-28T11:08:47.450Z,19.20
2019-02-28T11:11:19.082Z,19.90
2019-02-28T11:13:51.494Z,21.33
2019-02-28T11:16:24.986Z,21.95
2019-02-28T11:18:56.644Z,20.23
2019-02-28T11:21:29.755Z,19.52
2019-02-28T11:24:00.829Z,20.37
2019-02-28T11:26:31.503Z,20.45
2019-02-28T11:29:03.162Z,19.73
2019-02-28T11:31:34.670Z,19.32
2019-02-28T11:34:05.305Z,21.15
2019-02-28T11:36:36.087Z,20.52
2019-02-28T11:39:27.619Z,21.07
2019-02-28T11:41:59.314Z,21.35
2019-02-28T11:44:30.083Z,21.77
2019-02-28T11:47:00.744Z,22.00
2019-02-28T11:49:31.469Z,23.02
2019-02-28T11:52:02.127Z,22.40
2019-02-28T11:54:33.908Z,22.93
2019-02-28T11:57:06.833Z,22.87
2019-02-28T11:59:37.592Z,23.83
2019-02-28T12:02:09.314Z,23.67
2019-02-28T12:04:40.467Z,24.00
2019-02-28T12:07:13.311Z,24.35
2019-02-28T12:09:43.872Z,23.92
2019-02-28T12:12:14.528Z,22.45
2019-02-28T12:14:45.093Z,23.77
2019-02-28T12:17:15.698Z,23.00
2019-02-28T12:19:47.609Z,22.30
2019-02-28T12:22:18.713Z,23.07
2019-02-28T12:24:49.311Z,22.25
2019-02-28T12:27:20.312Z,23.45
2019-02-28T12:29:50.870Z,22.77
2019-02-28T12:32:21.640Z,22.50
2019-02-28T12:34:52.261Z,21.80
2019-02-28T12:37:23.159Z,24.20
2019-02-28T12:39:54.856Z,24.72
2019-02-28T12:42:25.470Z,23.32
2019-02-28T12:44:56.291Z,24.82
2019-02-28T12:47:29.490Z,24.90
2019-02-28T12:50:00.238Z,23.92
2019-02-28T12:52:30.706Z,24.07
2019-02-28T12:55:03.979Z,25.17
2019-02-28T12:57:33.821Z,24.85
2019-02-28T13:00:04.867Z,24.02
2019-02-28T13:02:39.691Z,23.52
2019-02-28T13:05:14.825Z,24.05
2019-02-28T13:07:43.926Z,24.37
2019-02-28T13:10:16.949Z,24.55
2019-02-28T13:12:48.872Z,24.55
2019-02-28T13:15:20.719Z,23.17
2019-02-28T13:17:51.330Z,23.77
2019-02-28T13:20:23.416Z,23.52
2019-02-28T13:22:55.631Z,23.62
2019-02-28T13:25:26.306Z,22.82
2019-02-28T13:27:56.749Z,22.82
2019-02-28T13:30:27.558Z,23.20
2019-02-28T13:32:58.180Z,23.10
2019-02-28T13:35:30.724Z,23.42
2019-02-28T13:38:01.365Z,23.83
2019-02-28T13:40:31.980Z,23.27
2019-02-28T13:43:02.520Z,23.27
2019-02-28T13:45:33.246Z,23.45
2019-02-28T13:50:43.897Z,24.95
2019-02-28T13:53:18.563Z,24.25
2019-02-28T13:55:46.827Z,23.85
2019-02-28T13:58:21.509Z,23.32
2019-02-28T14:00:49.951Z,23.38
2019-02-28T14:03:42.273Z,23.98
2019-02-28T14:06:18.909Z,24.90
2019-02-28T14:08:46.118Z,23.50
2019-02-28T14:11:17.722Z,24.27
2019-02-28T14:13:48.425Z,24.60
2019-02-28T14:16:18.957Z,23.52
2019-02-28T14:18:49.713Z,24.87
2019-02-28T14:21:20.373Z,23.38
2019-02-28T14:23:52.477Z,23.83
2019-02-28T14:26:23.722Z,25.00
2019-02-28T14:28:54.462Z,25.57
2019-02-28T14:31:26.244Z,24.95
2019-02-28T14:33:58.796Z,24.90
2019-02-28T14:36:29.382Z,23.62
2019-02-28T14:39:08.465Z,23.85
2019-02-28T14:41:38.154Z,24.50
2019-02-28T14:44:08.745Z,24.23
2019-02-28T14:46:39.248Z,25.72
2019-02-28T14:49:12.628Z,25.45
2019-02-28T14:51:42.568Z,25.50
2019-02-28T14:54:13.104Z,24.30
2019-02-28T14:56:43.706Z,24.90
2019-02-28T14:59:14.280Z,23.45
2019-02-28T15:01:45.192Z,25.37
2019-02-28T15:04:17.257Z,24.63
2019-02-28T15:06:49.061Z,24.18
2019-02-28T15:09:20.133Z,23.22
2019-02-28T15:11:50.888Z,24.95
2019-02-28T15:14:21.612Z,25.17
2019-02-28T15:16:52.161Z,24.23
2019-02-28T15:19:24.350Z,25.35
2019-02-28T15:21:55.066Z,26.30
2019-02-28T15:24:25.664Z,25.35
2019-02-28T15:26:56.259Z,26.55
2019-02-28T15:29:27.032Z,26.35
2019-02-28T15:31:59.142Z,26.23
2019-02-28T15:34:31.393Z,24.87
2019-02-28T15:37:01.947Z,24.25
2019-02-28T15:39:32.568Z,24.98
2019-02-28T15:42:08.185Z,25.60
2019-02-28T15:44:38.534Z,25.35
2019-02-28T15:47:09.279Z,24.20
2019-02-28T15:49:41.733Z,25.37
2019-02-28T15:52:13.171Z,24.87
2019-02-28T15:54:43.726Z,24.10
2019-02-28T15:57:14.407Z,25.00
2019-02-28T15:59:46.730Z,25.48
2019-02-28T16:02:19.136Z,25.88
2019-02-28T16:04:49.679Z,24.67
2019-02-28T16:07:20.500Z,24.52
2019-02-28T16:09:54.039Z,26.37
2019-02-28T16:12:24.539Z,25.82
2019-02-28T16:14:55.293Z,24.30
2019-02-28T16:17:26.058Z,23.67
2019-02-28T16:19:56.998Z,25.52
2019-02-28T16:22:27.583Z,24.57
2019-02-28T16:25:00.923Z,26.23
2019-02-28T16:27:32.285Z,26.15
2019-02-28T16:30:04.652Z,25.52
2019-02-28T16:32:35.346Z,27.17
2019-02-28T16:35:06.304Z,28.98
2019-02-28T16:37:36.992Z,29.12
2019-02-28T16:40:10.813Z,26.90
2019-02-28T16:42:43.391Z,27.35
2019-02-28T16:45:31.763Z,28.17
2019-02-28T16:48:05.470Z,28.10
2019-02-28T16:50:36.237Z,29.77
2019-02-28T16:53:07.425Z,29.10
2019-02-28T16:55:38.188Z,29.42
2019-02-28T16:58:08.901Z,28.83
2019-02-28T17:00:42.581Z,28.65
2019-02-28T17:03:12.134Z,30.02
2019-02-28T17:05:42.725Z,28.40
2019-02-28T17:08:15.603Z,28.73
2019-02-28T17:10:47.589Z,29.52
2019-02-28T17:13:38.751Z,30.30
2019-02-28T17:16:27.216Z,28.90
2019-02-28T17:18:57.973Z,29.85
2019-02-28T17:21:28.598Z,29.23
2019-02-28T17:23:59.222Z,28.83
2019-02-28T17:26:47.432Z,29.50
2019-02-28T17:29:42.900Z,30.45
2019-02-28T17:32:13.731Z,29.42
2019-02-28T17:34:44.329Z,30.10
2019-02-28T17:37:14.991Z,29.40
2019-02-28T17:39:47.322Z,28.80
2019-02-28T17:42:18.280Z,29.70
2019-02-28T17:45:17.984Z,29.40
2019-02-28T17:49:05.469Z,30.23
2019-02-28T17:52:08.209Z,28.52
2019-02-28T17:55:31.099Z,28.38
2019-02-28T17:59:18.223Z,28.40
2019-02-28T18:02:28.564Z,27.45
2019-02-28T18:05:55.001Z,28.50
2019-02-28T18:09:32.154Z,27.77
2019-02-28T18:13:12.037Z,28.10
2019-02-28T18:16:33.294Z,28.32
2019-02-28T18:20:12.655Z,29.12
2019-02-28T18:23:49.507Z,28.42
2019-02-28T18:27:08.209Z,30.35
2019-02-28T18:30:52.462Z,29.85
2019-02-28T18:33:23.084Z,30.95
2019-02-28T18:35:53.647Z,30.43
2019-02-28T18:38:26.110Z,30.80
2019-02-28T18:40:59.661Z,30.40
2019-02-28T18:43:29.312Z,31.30
2019-02-28T18:46:01.711Z,29.37
2019-02-28T18:48:32.317Z,30.50
2019-02-28T18:51:03.088Z,31.00
2019-02-28T18:53:33.794Z,30.97
2019-02-28T18:56:04.384Z,32.88
2019-02-28T18:58:34.981Z,31.90
2019-02-28T19:01:06.021Z,32.40
2019-02-28T19:03:36.634Z,33.02
2019-02-28T19:06:07.287Z,31.95
2019-02-28T19:08:37.914Z,32.75
2019-02-28T19:11:08.650Z,32.23
2019-02-28T19:13:40.194Z,32.45
2019-02-28T19:16:15.276Z,31.20
2019-02-28T19:18:46.410Z,30.88
2019-02-28T19:21:18.444Z,31.15
2019-02-28T19:23:49.055Z,33.20
2019-02-28T19:26:19.653Z,28.50
2019-02-28T19:28:50.249Z,31.45
2019-02-28T19:31:20.818Z,30.90
2019-02-28T19:33:51.528Z,29.65
2019-02-28T19:36:22.212Z,29.48
2019-02-28T19:38:52.918Z,30.60
2019-02-28T19:41:23.558Z,30.55
2019-02-28T19:43:54.339Z,29.95
2019-02-28T19:46:25.056Z,29.23
2019-02-28T19:48:55.701Z,30.45
2019-02-28T19:51:26.677Z,29.60
2019-02-28T19:53:57.267Z,30.15
2019-02-28T19:56:27.867Z,31.30
2019-02-28T19:58:58.500Z,29.42
2019-02-28T20:01:29.091Z,30.50
2019-02-28T20:04:00.936Z,30.43
2019-02-28T20:06:31.595Z,31.12
2019-02-28T20:09:02.272Z,30.65
2019-02-28T20:11:32.968Z,30.80
2019-02-28T20:14:03.600Z,29.90
2019-02-28T20:16:35.288Z,29.65
2019-02-28T20:19:05.937Z,30.12
2019-02-28T20:21:36.615Z,30.30
2019-02-28T20:24:09.250Z,30.68
2019-02-28T20:26:40.993Z,30.55
2019-02-28T20:29:11.649Z,30.60
2019-02-28T20:31:42.499Z,30.68
2019-02-28T20:34:16.432Z,29.90
2019-02-28T20:36:47.133Z,30.10
2019-02-28T20:39:17.803Z,30.10
2019-02-28T20:41:48.422Z,30.37
2019-02-28T20:44:19.072Z,29.77
2019-02-28T20:46:49.665Z,29.60
2019-02-28T20:49:20.361Z,27.95
2019-02-28T20:51:55.122Z,30.65
2019-02-28T20:54:23.307Z,30.43
2019-02-28T20:56:53.936Z,30.52
2019-02-28T20:59:25.507Z,30.70
2019-02-28T21:01:56.273Z,28.35
2019-02-28T21:04:26.845Z,30.68
2019-02-28T21:06:57.552Z,28.83
2019-02-28T21:09:29.932Z,28.80
2019-02-28T21:12:02.419Z,29.05
2019-02-28T21:14:33.087Z,28.70
2019-02-28T21:17:05.634Z,30.40
2019-02-28T21:19:36.178Z,29.92
2019-02-28T21:22:07.013Z,28.55
2019-02-28T21:24:37.629Z,30.08
2019-02-28T21:27:08.279Z,28.23
2019-02-28T21:29:38.987Z,27.45
2019-02-28T21:32:09.597Z,28.62
2019-02-28T21:34:40.237Z,27.58
2019-02-28T21:37:10.902Z,27.60
2019-02-28T21:39:41.499Z,28.80
2019-02-28T21:42:12.096Z,28.33
2019-02-28T21:44:43.749Z,27.62
2019-02-28T21:47:14.393Z,28.77
2019-02-28T21:49:45.046Z,28.95
2019-02-28T21:52:15.788Z,28.15
2019-02-28T21:54:48.170Z,27.85
2019-02-28T21:57:19.855Z,28.80
2019-02-28T21:59:50.481Z,28.85
2019-02-28T22:02:21.064Z,29.23
2019-02-28T22:04:51.679Z,29.40
2019-02-28T22:07:22.541Z,28.37
2019-02-28T22:09:53.150Z,28.80
2019-02-28T22:12:23.784Z,28.00
2019-02-28T22:14:54.410Z,28.73
2019-02-28T22:17:25.058Z,28.60
2019-02-28T22:19:56.660Z,29.03
2019-02-28T22:22:27.195Z,28.12
2019-02-28T22:24:57.816Z,27.77
2019-02-28T22:27:28.387Z,28.20
2019-02-28T22:30:02.617Z,28.20
2019-02-28T22:32:39.168Z,28.60
2019-02-28T22:35:19.364Z,30.02
2019-02-28T22:37:49.945Z,28.40
2019-02-28T22:40:21.644Z,29.72
2019-02-28T22:42:52.238Z,30.53
2019-02-28T22:45:22.979Z,29.27
2019-02-28T22:47:53.704Z,30.35
2019-02-28T22:50:24.349Z,29.32
2019-02-28T22:52:56.055Z,29.45
2019-02-28T22:55:26.905Z,30.08
2019-02-28T22:57:57.450Z,29.92
2019-02-28T23:00:46.782Z,28.60
2019-02-28T23:03:17.392Z,30.70
2019-02-28T23:05:49.436Z,31.05
2019-02-28T23:08:21.153Z,32.55
2019-02-28T23:10:52.176Z,33.78
2019-02-28T23:13:23.897Z,32.73
2019-02-28T23:15:54.480Z,31.62
2019-02-28T23:18:26.259Z,33.70
2019-02-28T23:20:56.900Z,32.88
2019-02-28T23:23:27.512Z,33.55
2019-02-28T23:26:12.963Z,33.95
2019-02-28T23:28:55.264Z,33.53
2019-02-28T23:32:30.686Z,35.23
2019-02-28T23:35:01.332Z,36.35
2019-02-28T23:37:31.909Z,35.63
2019-02-28T23:40:02.600Z,35.07
2019-02-28T23:42:33.409Z,36.60
2019-02-28T23:45:03.959Z,37.20
2019-02-28T23:47:34.541Z,37.08
2019-02-28T23:50:05.484Z,37.25
2019-02-28T23:52:36.196Z,37.73
2019-02-28T23:55:07.307Z,38.57
2019-02-28T23:57:37.877Z,37.38
